Terminal Aerodrome Forecast
Issued by NWS

Home | Current Version | Previous Version | Text Only | Print | Product List | Glossary On
Versions: 1 2 3 4 5 6 7 8 9 10 11 12 13
434
FTUS42 KGSP 241425 AAA
TAFGMU
TAF AMD
KGMU 241425Z 2414/2512 06004KT 5SM -SHRA BR SCT027 BKN050
      TEMPO 2414/2416 2SM BR BKN027
     FM241600 13004KT P6SM BKN035
     FM241900 16004KT P6SM BKN040
     FM250000 14004KT P6SM SCT050=

USA.gov is the U.S. government's official web portal to all federal, state and local government web resources and services.